Time;durP1;ratioP1;P1;durP2;ratioP2;P2;SDS_P1;SDS_P2;PMS_P1;PMS_P2;Temp;Humidity;BMP_temperature;BMP_pressure;BME280_temperature;BME280_humidity;BME280_pressure;Samples;Min_cycle;Max_cycle;Signal;HPM_P1;HPM_P2
2023/01/02 00:01:19;;;;;;;12.15;2.78;;;12.20;99.90;;;;;;5004616;28;20030;-83
2023/01/02 00:03:44;;;;;;;7.97;2.42;;;12.20;99.90;;;;;;4992305;28;20117;-83
2023/01/02 00:06:10;;;;;;;19.60;4.07;;;12.20;99.90;;;;;;5004779;28;20485;-83
2023/01/02 00:08:35;;;;;;;5.47;2.55;;;12.20;99.90;;;;;;4989519;28;20505;-83
2023/01/02 00:11:01;;;;;;;9.10;2.92;;;12.30;99.90;;;;;;5002051;28;20058;-83
2023/01/02 00:13:26;;;;;;;5.93;2.58;;;12.20;99.90;;;;;;4989362;28;20137;-83
2023/01/02 00:15:52;;;;;;;13.35;2.40;;;12.30;99.90;;;;;;5002907;28;20038;-83
2023/01/02 00:18:17;;;;;;;6.35;2.80;;;12.20;99.90;;;;;;4973068;28;20085;-83
2023/01/02 00:20:43;;;;;;;12.20;3.10;;;12.30;99.90;;;;;;4976226;28;20041;-83
2023/01/02 00:23:08;;;;;;;8.95;3.40;;;12.30;99.90;;;;;;4984349;28;20068;-83
2023/01/02 00:25:34;;;;;;;5.68;1.55;;;12.30;99.90;;;;;;5002234;28;20501;-83
2023/01/02 00:28:00;;;;;;;4.72;3.10;;;12.30;99.90;;;;;;4977742;28;20045;-82
2023/01/02 00:30:25;;;;;;;7.22;2.35;;;12.30;99.90;;;;;;5004390;28;20375;-82
2023/01/02 00:32:51;;;;;;;10.95;3.17;;;12.40;99.90;;;;;;4989268;28;20049;-83
2023/01/02 00:35:17;;;;;;;5.57;2.60;;;12.40;99.90;;;;;;5000887;28;20042;-83
2023/01/02 00:37:42;;;;;;;4.53;2.05;;;12.40;99.90;;;;;;5002941;28;20052;-82
2023/01/02 00:40:12;;;;;;;9.73;3.05;;;12.40;99.90;;;;;;4998234;28;20490;-82
2023/01/02 00:42:39;;;;;;;19.05;3.15;;;12.40;99.90;;;;;;4980655;28;20072;-82
2023/01/02 00:45:05;;;;;;;7.88;2.80;;;12.50;99.90;;;;;;4996232;28;20101;-82
2023/01/02 00:47:31;;;;;;;7.40;2.72;;;12.50;99.90;;;;;;4968720;28;20045;-82
2023/01/02 00:49:56;;;;;;;8.38;2.88;;;12.50;99.90;;;;;;4997924;28;20042;-82
2023/01/02 00:52:22;;;;;;;3.20;1.55;;;12.50;99.90;;;;;;5005848;28;20394;-82
2023/01/02 00:54:47;;;;;;;9.18;2.85;;;12.50;99.90;;;;;;4972984;28;20160;-82
2023/01/02 00:57:13;;;;;;;6.50;3.00;;;12.50;99.90;;;;;;4981702;28;20073;-82
2023/01/02 00:59:38;;;;;;;7.78;2.50;;;12.60;99.90;;;;;;4999716;28;20053;-82
2023/01/02 01:02:04;;;;;;;7.00;2.72;;;12.60;99.90;;;;;;4998389;28;20164;-83
2023/01/02 01:04:36;;;;;;;5.90;1.33;;;12.50;99.90;;;;;;4973170;28;20465;-82
2023/01/02 01:07:01;;;;;;;7.68;2.72;;;12.60;99.90;;;;;;4987872;28;20038;-83
2023/01/02 01:09:27;;;;;;;9.20;2.83;;;12.50;99.90;;;;;;4973737;28;20440;-83
2023/01/02 01:11:52;;;;;;;7.13;2.17;;;12.60;99.90;;;;;;5001963;28;20070;-83
2023/01/02 01:14:18;;;;;;;2.17;1.20;;;12.60;99.90;;;;;;4971505;28;20041;-84
2023/01/02 01:16:44;;;;;;;8.00;2.55;;;12.60;99.90;;;;;;4986993;28;20022;-84
2023/01/02 01:19:09;;;;;;;5.97;2.83;;;12.50;99.90;;;;;;4998053;28;20037;-85
2023/01/02 01:21:35;;;;;;;11.00;3.40;;;12.50;99.90;;;;;;5000223;28;20118;-85
2023/01/02 01:24:00;;;;;;;6.53;2.40;;;12.50;99.90;;;;;;4975197;28;20042;-84
2023/01/02 01:26:26;;;;;;;11.27;3.28;;;12.50;99.90;;;;;;4987152;28;20091;-84
2023/01/02 01:28:52;;;;;;;8.50;2.70;;;12.50;99.90;;;;;;4968709;28;20419;-84
2023/01/02 01:31:18;;;;;;;7.82;2.60;;;12.40;99.90;;;;;;4969982;28;20030;-85
2023/01/02 01:33:43;;;;;;;10.13;3.08;;;12.50;99.90;;;;;;4985966;28;20045;-84
2023/01/02 01:36:16;;;;;;;8.13;3.08;;;12.50;99.90;;;;;;4991809;28;20046;-84
2023/01/02 01:38:42;;;;;;;6.32;3.13;;;12.40;99.90;;;;;;5005765;28;20069;-84
2023/01/02 01:41:09;;;;;;;8.60;2.80;;;12.40;99.90;;;;;;5008491;28;20484;-84
2023/01/02 01:43:43;;;;;;;5.38;2.58;;;12.30;99.90;;;;;;5008677;28;20033;-84
2023/01/02 01:46:32;;;;;;;12.30;4.18;;;12.40;99.90;;;;;;4983652;28;20091;-84
2023/01/02 01:49:23;;;;;;;8.48;3.88;;;12.30;99.90;;;;;;4986685;28;20034;-84
2023/01/02 01:52:03;;;;;;;6.80;2.85;;;12.30;99.90;;;;;;5006144;28;20289;-85
2023/01/02 01:54:34;;;;;;;8.38;3.97;;;12.30;99.90;;;;;;4979512;28;20410;-84
2023/01/02 01:57:03;;;;;;;7.78;3.17;;;12.30;99.90;;;;;;5003267;28;20107;-85
2023/01/02 01:59:28;;;;;;;11.65;3.58;;;12.30;99.90;;;;;;4985250;28;20497;-84
2023/01/02 02:01:54;;;;;;;10.68;2.10;;;12.20;99.90;;;;;;4987940;28;20042;-83
2023/01/02 02:04:19;;;;;;;6.30;3.25;;;12.20;99.90;;;;;;5008164;28;20053;-83
2023/01/02 02:06:45;;;;;;;9.95;2.80;;;12.20;99.90;;;;;;4976967;28;20026;-83
2023/01/02 02:09:19;;;;;;;9.32;3.22;;;12.20;99.90;;;;;;4991630;28;20041;-83
2023/01/02 02:11:45;;;;;;;9.27;3.28;;;12.10;99.90;;;;;;4990116;28;20033;-83
2023/01/02 02:14:10;;;;;;;6.22;2.85;;;12.30;99.90;;;;;;5003606;28;20030;-83
2023/01/02 02:16:56;;;;;;;4.72;2.60;;;12.10;99.90;;;;;;5007996;28;20044;-83
2023/01/02 02:19:41;;;;;;;;;;;12.10;99.90;;;;;;5002762;28;20038;-83
2023/01/02 02:22:10;;;;;;;7.50;2.33;;;12.10;99.90;;;;;;5037941;28;19909;-83
2023/01/02 02:25:06;;;;;;;6.70;2.72;;;12.10;99.90;;;;;;5001256;28;20402;-83
2023/01/02 02:27:49;;;;;;;11.48;2.83;;;12.10;99.90;;;;;;4987550;28;20124;-83
2023/01/02 02:30:20;;;;;;;11.82;5.47;;;12.10;99.90;;;;;;5008278;28;20849;-83
2023/01/02 02:33:01;;;;;;;6.68;2.92;;;12.00;99.90;;;;;;5003438;28;20034;-84
2023/01/02 02:35:36;;;;;;;5.10;2.70;;;12.10;99.90;;;;;;5002643;28;20979;-83
2023/01/02 02:38:17;;;;;;;5.78;2.50;;;12.10;99.90;;;;;;4990587;28;20034;-84
2023/01/02 02:40:48;;;;;;;10.93;2.80;;;12.10;99.90;;;;;;4986199;28;20161;-83
2023/01/02 02:43:16;;;;;;;11.75;2.85;;;12.10;99.90;;;;;;4990543;28;20041;-84
2023/01/02 02:45:59;;;;;;;6.32;2.30;;;12.10;99.90;;;;;;4990885;28;20030;-84
2023/01/02 02:49:09;;;;;;;7.20;2.65;;;12.10;99.90;;;;;;4967821;28;20480;-83
2023/01/02 02:51:58;;;;;;;6.28;2.38;;;12.10;99.90;;;;;;4997129;28;20109;-84
2023/01/02 02:54:26;;;;;;;6.93;2.15;;;12.00;99.90;;;;;;4978510;28;20569;-84
2023/01/02 02:56:51;;;;;;;6.07;2.80;;;12.10;99.90;;;;;;4990719;28;20116;-84
2023/01/02 02:59:17;;;;;;;10.10;3.58;;;12.10;99.90;;;;;;4990475;28;20569;-84
2023/01/02 03:01:43;;;;;;;6.05;2.80;;;12.10;99.90;;;;;;4990777;28;20064;-85
2023/01/02 03:04:16;;;;;;;7.78;2.65;;;12.00;99.90;;;;;;4990591;28;20060;-86
2023/01/02 03:07:12;;;;;;;11.18;2.80;;;12.10;99.90;;;;;;4985796;28;20030;-86
2023/01/02 03:09:42;;;;;;;8.65;4.07;;;12.00;99.90;;;;;;4991721;28;20030;-86
2023/01/02 03:12:24;;;;;;;7.25;2.50;;;12.00;99.90;;;;;;5005527;28;20030;-86
2023/01/02 03:15:13;;;;;;;7.97;3.30;;;12.00;99.90;;;;;;4990036;28;20529;-86
2023/01/02 03:18:18;;;;;;;9.57;3.35;;;12.00;99.90;;;;;;5000404;28;20222;-85
2023/01/02 03:20:45;;;;;;;6.93;2.42;;;11.90;99.90;;;;;;5006819;28;20026;-84
2023/01/02 03:23:18;;;;;;;2.53;1.55;;;12.00;99.90;;;;;;4989889;28;20588;-84
2023/01/02 03:25:43;;;;;;;7.00;2.28;;;12.00;99.90;;;;;;4969017;28;20583;-85
2023/01/02 03:28:09;;;;;;;5.75;2.55;;;12.00;99.90;;;;;;4980567;28;20084;-85
2023/01/02 03:30:36;;;;;;;9.23;3.45;;;12.00;99.90;;;;;;4990497;28;20378;-83
2023/01/02 03:33:14;;;;;;;5.80;2.58;;;12.00;99.90;;;;;;4989512;28;20058;-84
2023/01/02 03:35:43;;;;;;;4.25;1.90;;;12.00;99.90;;;;;;4987978;28;20042;-83
2023/01/02 03:38:13;;;;;;;9.25;3.15;;;12.00;99.90;;;;;;4978714;28;20037;-84
2023/01/02 03:40:43;;;;;;;4.30;1.48;;;12.00;99.90;;;;;;4955020;28;20046;-83
2023/01/02 03:43:21;;;;;;;10.23;3.70;;;12.00;99.90;;;;;;4968063;28;20494;-84
2023/01/02 03:46:09;;;;;;;5.72;1.80;;;11.90;99.90;;;;;;4986481;28;20481;-83
2023/01/02 03:48:50;;;;;;;11.48;4.10;;;11.90;99.90;;;;;;4996909;28;20041;-84
2023/01/02 03:51:16;;;;;;;13.68;3.40;;;11.90;99.90;;;;;;4992022;28;20072;-84
2023/01/02 03:53:42;;;;;;;18.80;3.60;;;11.80;99.90;;;;;;4989944;28;20934;-84
2023/01/02 03:56:22;;;;;;;7.00;3.55;;;11.80;99.90;;;;;;4990185;28;20030;-84
2023/01/02 03:58:52;;;;;;;9.32;3.97;;;11.80;99.90;;;;;;4984558;28;20545;-84
2023/01/02 04:01:43;;;;;;;11.93;3.80;;;12.00;99.90;;;;;;4987458;28;20049;-84
2023/01/02 04:04:11;;;;;;;11.60;3.63;;;11.80;99.90;;;;;;4995904;28;20045;-84
2023/01/02 04:06:43;;;;;;;11.20;3.88;;;11.80;99.90;;;;;;5003940;28;20041;-85
2023/01/02 04:09:20;;;;;;;9.27;2.83;;;11.80;99.90;;;;;;4984433;28;20405;-85
2023/01/02 04:11:46;;;;;;;9.40;3.40;;;11.80;99.90;;;;;;4989300;28;20398;-85
2023/01/02 04:14:16;;;;;;;10.82;3.92;;;11.80;99.90;;;;;;5000307;28;20031;-85
2023/01/02 04:16:42;;;;;;;10.75;3.28;;;11.70;99.90;;;;;;4989781;28;20066;-84
2023/01/02 04:19:12;;;;;;;7.43;3.47;;;11.80;99.90;;;;;;4976314;28;20076;-85
2023/01/02 04:21:39;;;;;;;10.52;3.45;;;11.70;99.90;;;;;;4973715;28;20065;-83
2023/01/02 04:24:08;;;;;;;10.98;3.67;;;11.70;99.90;;;;;;5018768;28;20049;-83
2023/01/02 04:26:59;;;;;;;6.72;2.83;;;11.70;99.90;;;;;;4987520;28;20045;-83
2023/01/02 04:29:24;;;;;;;9.25;3.15;;;11.70;99.90;;;;;;4973088;28;20034;-84
2023/01/02 04:31:57;;;;;;;5.20;3.00;;;11.70;99.90;;;;;;4971347;28;20088;-85
2023/01/02 04:34:22;;;;;;;11.00;2.97;;;11.70;99.90;;;;;;5005323;28;20378;-85
2023/01/02 04:36:48;;;;;;;10.00;3.08;;;11.70;99.90;;;;;;5003022;28;20022;-84
2023/01/02 04:39:13;;;;;;;7.00;2.45;;;11.70;99.90;;;;;;4975134;28;20395;-85
2023/01/02 04:41:39;;;;;;;9.48;2.17;;;11.70;99.90;;;;;;4971799;28;20026;-84
2023/01/02 04:44:05;;;;;;;11.30;4.10;;;11.80;99.90;;;;;;4985917;28;20132;-85
2023/01/02 04:46:30;;;;;;;8.27;2.88;;;11.60;99.90;;;;;;4986593;28;20030;-84
2023/01/02 04:48:56;;;;;;;8.77;3.22;;;11.70;99.90;;;;;;4968321;28;20494;-84
2023/01/02 04:51:22;;;;;;;10.05;3.22;;;11.70;99.90;;;;;;4976690;28;20041;-84
2023/01/02 04:53:50;;;;;;;9.05;3.05;;;11.70;99.90;;;;;;4977042;28;20034;-84
2023/01/02 04:56:21;;;;;;;3.50;2.17;;;11.70;99.90;;;;;;4982931;28;20038;-84
2023/01/02 04:58:47;;;;;;;11.65;3.30;;;11.70;99.90;;;;;;4980749;28;20057;-84
2023/01/02 05:01:14;;;;;;;9.80;4.25;;;11.70;99.90;;;;;;4982534;28;20030;-84
2023/01/02 05:03:40;;;;;;;7.88;1.88;;;11.70;99.90;;;;;;4999930;28;20476;-84
2023/01/02 05:06:06;;;;;;;8.98;2.38;;;11.70;99.90;;;;;;4987917;28;20041;-84
2023/01/02 05:08:32;;;;;;;8.38;2.45;;;11.70;99.90;;;;;;4989308;28;20410;-84
2023/01/02 05:11:07;;;;;;;9.25;2.80;;;11.70;99.90;;;;;;4990584;28;20045;-83
2023/01/02 05:13:43;;;;;;;6.47;2.60;;;11.70;99.90;;;;;;5009487;28;20127;-84
2023/01/02 05:16:09;;;;;;;4.40;1.65;;;11.70;99.90;;;;;;4996923;28;20494;-83
2023/01/02 05:18:35;;;;;;;12.30;3.67;;;11.60;99.90;;;;;;4991762;28;20059;-84
2023/01/02 05:21:02;;;;;;;10.13;2.42;;;11.70;99.90;;;;;;5008172;28;20041;-84
2023/01/02 05:26:12;;;;;;;5.30;2.33;;;11.70;99.90;;;;;;5009676;28;20137;-84
2023/01/02 05:28:38;;;;;;;6.00;2.20;;;11.70;99.90;;;;;;4992758;28;20794;-84
2023/01/02 05:31:04;;;;;;;11.77;1.67;;;11.80;99.90;;;;;;4973770;28;20474;-84
2023/01/02 05:33:29;;;;;;;8.88;2.03;;;11.80;99.90;;;;;;5007610;28;20037;-84
2023/01/02 05:35:55;;;;;;;6.57;2.67;;;11.70;99.90;;;;;;4988904;28;20049;-84
2023/01/02 05:38:20;;;;;;;9.15;2.88;;;11.80;99.90;;;;;;4992133;28;20490;-83
2023/01/02 05:40:46;;;;;;;4.57;1.95;;;11.70;99.90;;;;;;4987985;28;20045;-82
2023/01/02 05:43:11;;;;;;;15.70;1.52;;;11.70;99.90;;;;;;4988708;28;20121;-83
2023/01/02 05:45:37;;;;;;;9.93;2.92;;;11.80;99.90;;;;;;5008399;28;20121;-83
2023/01/02 05:48:03;;;;;;;8.48;2.75;;;11.80;99.90;;;;;;4996682;28;20060;-82
2023/01/02 05:50:28;;;;;;;12.80;3.33;;;11.80;99.90;;;;;;5020962;28;20046;-82
2023/01/02 05:52:55;;;;;;;11.20;3.35;;;11.80;99.90;;;;;;4978430;28;20034;-84
2023/01/02 05:55:21;;;;;;;11.32;3.10;;;11.70;99.90;;;;;;4981146;28;20057;-84
2023/01/02 05:57:47;;;;;;;9.20;2.50;;;11.80;99.90;;;;;;4985268;28;20091;-83
2023/01/02 06:00:13;;;;;;;8.98;2.72;;;11.80;99.90;;;;;;5005309;28;20497;-83
2023/01/02 06:02:39;;;;;;;17.63;3.08;;;11.80;99.90;;;;;;4974750;28;20092;-83
2023/01/02 06:05:05;;;;;;;10.73;2.97;;;11.80;99.90;;;;;;4990867;28;20038;-84
2023/01/02 06:07:30;;;;;;;9.27;2.20;;;11.70;99.90;;;;;;5020963;28;20464;-83
2023/01/02 06:09:56;;;;;;;3.30;1.40;;;11.80;99.90;;;;;;4987299;28;20038;-84
2023/01/02 06:12:21;;;;;;;8.20;2.40;;;11.80;99.90;;;;;;4975492;28;20030;-84
2023/01/02 06:14:47;;;;;;;10.18;2.40;;;11.80;99.90;;;;;;4985287;28;20038;-84
2023/01/02 06:17:12;;;;;;;5.38;2.13;;;11.80;99.90;;;;;;4987080;28;20401;-83
2023/01/02 06:19:38;;;;;;;6.53;2.20;;;11.80;99.90;;;;;;4986149;28;20483;-83
2023/01/02 06:22:04;;;;;;;5.57;2.17;;;11.70;99.90;;;;;;4991306;28;20044;-83
2023/01/02 06:24:29;;;;;;;3.63;1.40;;;11.70;99.90;;;;;;5003121;28;20034;-83
2023/01/02 06:26:56;;;;;;;6.57;2.47;;;11.70;99.90;;;;;;4990812;28;20044;-83
2023/01/02 06:29:21;;;;;;;9.38;2.95;;;11.80;99.90;;;;;;4987473;28;20034;-83
2023/01/02 06:31:47;;;;;;;2.53;1.23;;;11.70;99.90;;;;;;4988013;28;20087;-84
2023/01/02 06:34:13;;;;;;;7.40;2.30;;;11.70;99.90;;;;;;4987894;28;20038;-85
2023/01/02 06:36:38;;;;;;;7.97;2.50;;;11.60;99.90;;;;;;4989808;28;20560;-83
2023/01/02 06:39:04;;;;;;;6.35;2.38;;;11.80;99.90;;;;;;4993062;28;20630;-83
2023/01/02 06:41:29;;;;;;;10.25;2.65;;;11.70;99.90;;;;;;4991052;28;20406;-83
2023/01/02 06:43:55;;;;;;;1.55;1.33;;;11.70;99.90;;;;;;4991005;28;20038;-83
2023/01/02 06:46:21;;;;;;;4.22;1.95;;;11.70;99.90;;;;;;5003823;28;20030;-83
2023/01/02 06:48:49;;;;;;;9.40;2.08;;;11.80;99.90;;;;;;4984795;28;20034;-83
2023/01/02 06:51:16;;;;;;;4.72;1.55;;;11.70;99.90;;;;;;4990593;28;20388;-83
2023/01/02 06:53:42;;;;;;;5.55;1.52;;;11.70;99.90;;;;;;4975659;28;20053;-84
2023/01/02 06:56:08;;;;;;;5.70;2.35;;;11.70;99.90;;;;;;4989519;28;20038;-83
2023/01/02 06:58:34;;;;;;;6.68;1.65;;;11.70;99.90;;;;;;5002027;28;20552;-84
2023/01/02 07:01:03;;;;;;;7.03;1.98;;;11.80;99.90;;;;;;4983875;28;20034;-84
2023/01/02 07:03:28;;;;;;;5.78;1.73;;;11.80;99.90;;;;;;5001958;28;20085;-84
2023/01/02 07:06:00;;;;;;;2.67;1.88;;;11.90;99.90;;;;;;4976413;28;20497;-85
2023/01/02 07:08:25;;;;;;;2.38;1.00;;;11.80;99.90;;;;;;4983980;28;20120;-83
2023/01/02 07:10:51;;;;;;;8.82;2.70;;;11.70;99.90;;;;;;4993207;28;20603;-83
2023/01/02 07:13:16;;;;;;;6.55;1.60;;;11.80;99.90;;;;;;4984771;28;20132;-83
2023/01/02 07:15:42;;;;;;;5.65;1.92;;;11.80;99.90;;;;;;5001003;28;20137;-83
2023/01/02 07:18:07;;;;;;;8.07;2.15;;;11.80;99.90;;;;;;5003907;28;20060;-82
2023/01/02 07:20:33;;;;;;;6.38;2.22;;;11.80;99.90;;;;;;5004232;28;20053;-83
2023/01/02 07:22:58;;;;;;;4.60;2.08;;;11.80;99.90;;;;;;4988339;28;20061;-83
2023/01/02 07:25:24;;;;;;;5.50;2.05;;;11.80;99.90;;;;;;4989398;28;20073;-83
2023/01/02 07:27:49;;;;;;;6.65;1.50;;;11.80;99.90;;;;;;5003090;28;20454;-83
2023/01/02 07:30:15;;;;;;;2.88;1.50;;;11.80;99.90;;;;;;4990180;28;20053;-83
2023/01/02 07:32:42;;;;;;;5.85;1.83;;;11.70;99.90;;;;;;4984231;28;20038;-82
2023/01/02 07:35:08;;;;;;;7.32;1.48;;;11.80;99.90;;;;;;4992176;28;20036;-83
2023/01/02 07:37:33;;;;;;;5.38;1.83;;;11.80;99.90;;;;;;4992187;28;20038;-82
2023/01/02 07:39:59;;;;;;;3.97;1.73;;;11.80;99.90;;;;;;4975117;28;20133;-83
2023/01/02 07:42:24;;;;;;;4.32;1.38;;;11.70;99.90;;;;;;5002151;28;20033;-82
2023/01/02 07:44:50;;;;;;;2.03;1.35;;;11.80;99.90;;;;;;4984321;28;20273;-83
2023/01/02 07:47:15;;;;;;;3.97;1.90;;;11.80;99.90;;;;;;4997039;28;20068;-82
2023/01/02 07:49:41;;;;;;;4.68;1.92;;;11.70;99.90;;;;;;4978981;28;20046;-83
2023/01/02 07:52:10;;;;;;;3.72;1.85;;;11.60;99.90;;;;;;5001632;28;20041;-83
2023/01/02 07:54:35;;;;;;;2.47;1.08;;;11.90;99.90;;;;;;4986213;28;20528;-83
2023/01/02 07:57:01;;;;;;;0.77;0.75;;;11.80;99.90;;;;;;4987932;28;20042;-83
2023/01/02 07:59:27;;;;;;;2.03;1.10;;;11.80;99.90;;;;;;4990040;28;20050;-83
2023/01/02 08:01:52;;;;;;;3.75;1.15;;;11.80;99.90;;;;;;4975451;28;20054;-83
2023/01/02 08:04:18;;;;;;;6.38;2.00;;;11.80;99.90;;;;;;4986837;28;20034;-83
2023/01/02 08:06:44;;;;;;;4.57;1.48;;;11.80;99.90;;;;;;4986336;28;20034;-81
2023/01/02 08:09:10;;;;;;;3.50;0.98;;;11.70;99.90;;;;;;4989225;28;20129;-83
2023/01/02 08:11:36;;;;;;;4.68;1.75;;;11.70;99.90;;;;;;4988990;28;20099;-83
2023/01/02 08:14:01;;;;;;;11.20;2.15;;;11.70;99.90;;;;;;5002930;28;20121;-83
2023/01/02 08:16:27;;;;;;;1.52;1.10;;;11.60;99.90;;;;;;4988980;28;20171;-84
2023/01/02 08:18:54;;;;;;;3.90;1.98;;;11.70;99.90;;;;;;4984064;28;20116;-83
2023/01/02 08:21:22;;;;;;;3.63;2.00;;;11.70;99.90;;;;;;5004033;28;20044;-84
2023/01/02 08:23:47;;;;;;;3.15;1.05;;;11.70;99.90;;;;;;5002161;28;20674;-83
2023/01/02 08:26:13;;;;;;;4.70;1.52;;;11.70;99.90;;;;;;4999034;28;20053;-83
2023/01/02 08:28:39;;;;;;;1.75;1.02;;;11.70;99.90;;;;;;5004638;28;20153;-84
2023/01/02 08:31:10;;;;;;;6.13;1.77;;;11.70;99.90;;;;;;5001496;28;20089;-84
2023/01/02 08:33:35;;;;;;;2.60;1.65;;;11.70;99.90;;;;;;4970243;28;20406;-84
2023/01/02 08:36:01;;;;;;;4.18;1.77;;;11.60;99.90;;;;;;4973447;28;20046;-83
2023/01/02 08:38:26;;;;;;;3.35;1.55;;;11.60;99.90;;;;;;4989557;28;20030;-84
2023/01/02 08:40:52;;;;;;;7.00;2.03;;;11.60;99.90;;;;;;4974125;28;20438;-84
2023/01/02 08:43:18;;;;;;;7.20;1.95;;;11.60;99.90;;;;;;5006364;28;20025;-84
2023/01/02 08:45:44;;;;;;;6.50;2.10;;;11.70;99.90;;;;;;4992927;28;20049;-84
2023/01/02 08:48:10;;;;;;;2.45;1.00;;;11.70;99.90;;;;;;4991651;28;20035;-84
2023/01/02 08:50:35;;;;;;;5.38;1.95;;;11.70;99.90;;;;;;4996035;28;20040;-83
2023/01/02 08:53:01;;;;;;;3.85;1.52;;;11.60;99.90;;;;;;5002145;28;20038;-83
2023/01/02 08:55:26;;;;;;;2.20;1.15;;;11.60;99.90;;;;;;4991187;28;20053;-84
2023/01/02 08:57:52;;;;;;;3.08;1.33;;;11.60;99.90;;;;;;4990178;28;20035;-84
2023/01/02 09:00:18;;;;;;;6.30;3.60;;;11.60;99.90;;;;;;4988268;28;20033;-83
2023/01/02 09:02:43;;;;;;;13.82;2.28;;;11.60;99.90;;;;;;5007725;28;20061;-83
2023/01/02 09:05:09;;;;;;;7.35;1.77;;;11.50;99.90;;;;;;4992125;28;20057;-83
2023/01/02 09:07:34;;;;;;;1.48;1.00;;;11.50;99.90;;;;;;5005100;28;20030;-83
2023/01/02 09:10:00;;;;;;;3.17;1.45;;;11.40;99.90;;;;;;4984557;28;20025;-83
2023/01/02 09:12:25;;;;;;;3.95;1.00;;;11.40;99.90;;;;;;4984459;28;20037;-83
2023/01/02 09:14:51;;;;;;;1.33;0.93;;;11.40;99.90;;;;;;4990012;28;20036;-83
2023/01/02 09:17:17;;;;;;;3.20;1.10;;;11.30;99.90;;;;;;5002509;28;20038;-83
2023/01/02 09:19:43;;;;;;;3.65;0.75;;;11.30;99.90;;;;;;5008769;28;20401;-83
2023/01/02 09:22:09;;;;;;;1.80;0.68;;;11.30;99.90;;;;;;4986464;28;20121;-83
2023/01/02 09:24:35;;;;;;;0.77;0.70;;;11.20;99.90;;;;;;4992209;28;20105;-83
2023/01/02 09:27:01;;;;;;;0.75;0.60;;;11.00;99.90;;;;;;5004672;28;20782;-84
2023/01/02 09:29:27;;;;;;;1.27;0.60;;;11.10;99.90;;;;;;4992037;28;20022;-83
2023/01/02 09:31:52;;;;;;;2.47;0.40;;;11.10;99.90;;;;;;5000400;28;20033;-83
2023/01/02 09:34:18;;;;;;;2.05;0.70;;;11.00;99.90;;;;;;5004328;28;20025;-83
2023/01/02 09:36:46;;;;;;;1.67;0.68;;;11.00;99.90;;;;;;4992350;28;20554;-83
2023/01/02 09:39:12;;;;;;;0.50;0.50;;;10.90;99.90;;;;;;4999912;28;20095;-83
2023/01/02 09:41:38;;;;;;;0.93;0.60;;;11.00;99.90;;;;;;5002175;28;20046;-83
2023/01/02 09:44:13;;;;;;;3.90;0.60;;;11.00;99.90;;;;;;4978681;28;20038;-83
2023/01/02 09:46:49;;;;;;;0.98;0.40;;;10.90;99.90;;;;;;4991394;28;20124;-83
2023/01/02 09:49:20;;;;;;;1.52;0.70;;;10.90;99.90;;;;;;5001364;28;20038;-83
2023/01/02 09:51:46;;;;;;;2.55;1.00;;;10.80;99.90;;;;;;5004269;28;20034;-83
2023/01/02 09:54:21;;;;;;;0.70;0.70;;;10.80;99.90;;;;;;5006519;28;20046;-83
2023/01/02 09:56:48;;;;;;;1.20;0.60;;;10.80;99.90;;;;;;4990579;28;20505;-84
2023/01/02 09:59:21;;;;;;;2.13;0.70;;;10.80;99.90;;;;;;4972994;28;20452;-84
2023/01/02 10:02:15;;;;;;;2.60;0.93;;;10.80;99.90;;;;;;5018829;28;20126;-84
2023/01/02 10:05:17;;;;;;;1.65;0.98;;;10.80;99.90;;;;;;4984292;28;20034;-83
2023/01/02 10:07:51;;;;;;;1.80;1.25;;;10.70;99.90;;;;;;5007698;28;20034;-84
2023/01/02 10:10:19;;;;;;;2.38;1.33;;;10.70;99.90;;;;;;5006964;28;20773;-84
2023/01/02 10:13:17;;;;;;;2.42;1.45;;;10.70;99.90;;;;;;4991182;28;20026;-83
2023/01/02 10:15:47;;;;;;;3.72;1.83;;;10.70;99.90;;;;;;4987213;28;20044;-83
2023/01/02 10:18:39;;;;;;;1.85;1.20;;;10.90;99.90;;;;;;5000645;28;20057;-83
2023/01/02 10:21:14;;;;;;;2.40;1.92;;;10.80;99.90;;;;;;5000035;28;20394;-84
2023/01/02 10:23:44;;;;;;;3.70;2.47;;;10.80;99.90;;;;;;5002896;28;20507;-83
2023/01/02 10:26:17;;;;;;;3.35;2.53;;;10.80;99.90;;;;;;4974809;28;20281;-83
2023/01/02 10:29:02;;;;;;;4.25;2.90;;;10.80;99.90;;;;;;4991972;28;20041;-83
2023/01/02 10:31:49;;;;;;;2.53;2.28;;;10.80;99.90;;;;;;4990279;28;20038;-83
2023/01/02 10:34:20;;;;;;;4.75;2.55;;;10.70;99.90;;;;;;4988894;28;20034;-82
2023/01/02 10:36:46;;;;;;;5.93;3.25;;;10.80;99.90;;;;;;4984225;28;20092;-83
2023/01/02 10:39:17;;;;;;;4.30;3.35;;;10.70;99.90;;;;;;4985125;28;20034;-83
2023/01/02 10:41:48;;;;;;;4.55;2.83;;;10.70;99.90;;;;;;5000868;28;20486;-83
2023/01/02 10:44:22;;;;;;;4.97;2.08;;;10.80;99.90;;;;;;4989992;28;20044;-83
2023/01/02 10:46:47;;;;;;;4.22;3.22;;;10.70;99.90;;;;;;5002934;28;20029;-83
2023/01/02 10:49:13;;;;;;;5.25;3.63;;;10.80;99.90;;;;;;4983485;28;20124;-84
2023/01/02 10:51:43;;;;;;;8.30;2.65;;;10.60;99.90;;;;;;4985307;28;20038;-84
2023/01/02 10:54:09;;;;;;;6.47;5.05;;;10.60;99.90;;;;;;5005286;28;20030;-82
2023/01/02 10:56:38;;;;;;;6.28;4.85;;;10.60;99.90;;;;;;4989479;28;20643;-83
2023/01/02 10:59:17;;;;;;;6.82;5.68;;;10.60;99.90;;;;;;5002674;28;20112;-83
2023/01/02 11:01:55;;;;;;;4.55;3.90;;;10.60;99.90;;;;;;5004128;28;20245;-82
2023/01/02 11:04:26;;;;;;;5.25;4.43;;;10.60;99.90;;;;;;4989885;28;20189;-82
2023/01/02 11:06:55;;;;;;;6.45;4.53;;;10.60;99.90;;;;;;4982107;28;20041;-82
2023/01/02 11:09:41;;;;;;;5.43;4.35;;;10.60;99.90;;;;;;5004760;28;20037;-82
2023/01/02 11:12:08;;;;;;;7.13;5.43;;;10.60;99.90;;;;;;4971425;28;20045;-82
2023/01/02 11:14:34;;;;;;;6.28;4.72;;;10.60;99.90;;;;;;4989652;28;20054;-82
2023/01/02 11:17:05;;;;;;;5.22;4.72;;;10.60;99.90;;;;;;5001971;28;20042;-82
2023/01/02 11:19:31;;;;;;;6.53;4.72;;;10.60;99.90;;;;;;4972724;28;20041;-82
2023/01/02 11:21:56;;;;;;;4.80;4.03;;;10.70;99.90;;;;;;4985364;28;20411;-82
2023/01/02 11:24:25;;;;;;;7.00;5.57;;;10.70;99.90;;;;;;4964759;28;20124;-82
2023/01/02 11:26:51;;;;;;;5.65;3.55;;;10.70;99.90;;;;;;4988448;28;20034;-83
2023/01/02 11:29:27;;;;;;;2.42;2.15;;;10.70;99.90;;;;;;4982611;28;20581;-82
2023/01/02 11:31:56;;;;;;;7.10;5.45;;;10.70;99.90;;;;;;4994849;28;20038;-82
2023/01/02 11:34:29;;;;;;;3.67;2.42;;;10.70;99.90;;;;;;4988803;28;20026;-83
2023/01/02 11:37:00;;;;;;;3.67;2.70;;;10.60;99.90;;;;;;4993803;28;20095;-82
2023/01/02 11:39:26;;;;;;;7.53;5.15;;;10.70;99.90;;;;;;4976792;28;20088;-83
2023/01/02 11:44:55;;;;;;;6.78;5.32;;;10.70;99.90;;;;;;4989341;28;20041;-82
2023/01/02 11:47:47;;;;;;;6.35;5.22;;;10.70;99.90;;;;;;4972282;28;20033;-82
2023/01/02 11:50:25;;;;;;;8.15;6.70;;;10.70;99.90;;;;;;4987387;28;20042;-80
2023/01/02 11:52:51;;;;;;;9.38;7.72;;;10.70;99.90;;;;;;4990045;28;20046;-82
2023/01/02 11:55:16;;;;;;;7.30;6.05;;;10.70;99.90;;;;;;5007859;28;21506;-82
2023/01/02 11:57:52;;;;;;;7.50;5.35;;;10.80;99.90;;;;;;5006033;28;20034;-83
2023/01/02 12:00:18;;;;;;;9.60;6.87;;;10.70;99.90;;;;;;4988316;28;20121;-83
2023/01/02 12:02:48;;;;;;;6.70;4.65;;;10.80;99.90;;;;;;4987994;28;20045;-84
2023/01/02 12:05:15;;;;;;;9.52;6.30;;;10.90;99.90;;;;;;4984876;28;20030;-84
2023/01/02 12:07:43;;;;;;;6.00;4.30;;;10.90;99.90;;;;;;4977386;28;20042;-83
2023/01/02 12:10:27;;;;;;;8.23;5.82;;;10.90;99.90;;;;;;4979614;28;20547;-83
2023/01/02 12:13:01;;;;;;;6.70;4.07;;;11.00;99.90;;;;;;4999210;28;20534;-82
2023/01/02 12:15:39;;;;;;;6.53;4.30;;;11.00;99.90;;;;;;4994362;28;20044;-83
2023/01/02 12:18:15;;;;;;;5.25;3.65;;;11.10;99.90;;;;;;5001011;28;20440;-82
2023/01/02 12:20:44;;;;;;;8.10;6.07;;;11.10;99.90;;;;;;4989132;28;20037;-83
2023/01/02 12:23:17;;;;;;;9.00;5.38;;;11.10;99.90;;;;;;4992513;28;20040;-82
2023/01/02 12:26:11;;;;;;;6.68;4.95;;;11.20;99.90;;;;;;5000691;28;20575;-82
2023/01/02 12:28:51;;;;;;;10.23;6.10;;;11.20;99.90;;;;;;5001792;28;20153;-82
2023/01/02 12:31:28;;;;;;;6.05;4.13;;;11.20;99.90;;;;;;5005420;28;20137;-83
2023/01/02 12:33:56;;;;;;;6.65;4.88;;;11.30;99.90;;;;;;5000788;28;20402;-83
2023/01/02 12:36:34;;;;;;;6.20;5.10;;;11.30;99.90;;;;;;5004989;28;20040;-82
2023/01/02 12:39:23;;;;;;;8.27;4.82;;;11.30;99.90;;;;;;5003495;28;20100;-82
2023/01/02 12:42:05;;;;;;;7.85;5.72;;;11.30;99.90;;;;;;5004297;28;20026;-82
2023/01/02 12:44:56;;;;;;;7.03;4.97;;;11.30;99.90;;;;;;4987962;28;20541;-82
2023/01/02 12:47:37;;;;;;;8.15;5.40;;;11.30;99.90;;;;;;4978844;28;20069;-82
2023/01/02 12:50:23;;;;;;;8.82;5.18;;;11.30;99.90;;;;;;4985190;28;20056;-82
2023/01/02 12:53:07;;;;;;;5.38;3.90;;;11.30;99.90;;;;;;5000342;28;20397;-82
2023/01/02 12:55:45;;;;;;;8.18;4.70;;;11.20;99.90;;;;;;5003402;28;20026;-82
2023/01/02 12:58:29;;;;;;;9.02;5.82;;;11.30;99.90;;;;;;5002188;28;20033;-82
2023/01/02 13:01:08;;;;;;;5.63;4.18;;;11.30;99.90;;;;;;5032882;28;20533;-82
2023/01/02 13:03:48;;;;;;;6.82;4.20;;;11.30;99.90;;;;;;5003697;28;20557;-82
2023/01/02 13:06:33;;;;;;;7.53;4.70;;;11.30;99.90;;;;;;4996703;28;20081;-82